sensor_id;sensor_type;location;lat;lon;timestamp;pressure;altitude;pressure_sealevel;temperature;humidity
70323;BME280;57735;56.264;43.898;2023-03-16T00:00:45;100954.66;;;4.37;55.71
70323;BME280;57735;56.264;43.898;2023-03-16T00:03:18;100952.13;;;4.36;55.18
70323;BME280;57735;56.264;43.898;2023-03-16T00:05:49;100956.34;;;4.38;55.43
70323;BME280;57735;56.264;43.898;2023-03-16T00:08:20;100959.53;;;4.43;55.45
70323;BME280;57735;56.264;43.898;2023-03-16T00:10:51;100958.78;;;4.41;55.69
70323;BME280;57735;56.264;43.898;2023-03-16T00:13:30;100952.56;;;4.42;55.38
70323;BME280;57735;56.264;43.898;2023-03-16T00:16:04;100956.16;;;4.41;55.31
70323;BME280;57735;56.264;43.898;2023-03-16T00:18:36;100954.28;;;4.43;55.02
70323;BME280;57735;56.264;43.898;2023-03-16T00:21:08;100946.44;;;4.42;55.06
70323;BME280;57735;56.264;43.898;2023-03-16T00:23:38;100959.75;;;4.40;55.18
70323;BME280;57735;56.264;43.898;2023-03-16T00:26:11;100948.34;;;4.40;54.98
70323;BME280;57735;56.264;43.898;2023-03-16T00:28:42;100948.34;;;4.40;55.25
70323;BME280;57735;56.264;43.898;2023-03-16T00:31:12;100953.72;;;4.38;54.93
70323;BME280;57735;56.264;43.898;2023-03-16T00:33:43;100959.75;;;4.40;55.17
70323;BME280;57735;56.264;43.898;2023-03-16T00:36:13;100956.34;;;4.38;55.01
70323;BME280;57735;56.264;43.898;2023-03-16T00:38:46;100968.59;;;4.39;55.09
70323;BME280;57735;56.264;43.898;2023-03-16T00:41:19;100961.63;;;4.38;55.06
70323;BME280;57735;56.264;43.898;2023-03-16T00:43:49;100952.97;;;4.36;54.86
70323;BME280;57735;56.264;43.898;2023-03-16T00:46:20;100952.34;;;4.33;54.74
70323;BME280;57735;56.264;43.898;2023-03-16T00:48:57;100941.78;;;4.33;54.84
70323;BME280;57735;56.264;43.898;2023-03-16T00:51:27;100936.59;;;4.31;54.76
70323;BME280;57735;56.264;43.898;2023-03-16T00:53:59;100935.84;;;4.29;54.94
70323;BME280;57735;56.264;43.898;2023-03-16T00:56:29;100935.84;;;4.29;54.80
70323;BME280;57735;56.264;43.898;2023-03-16T00:59:03;100934.81;;;4.32;54.98
70323;BME280;57735;56.264;43.898;2023-03-16T01:01:34;100939.34;;;4.30;54.90
70323;BME280;57735;56.264;43.898;2023-03-16T01:04:05;100939.25;;;4.31;54.62
70323;BME280;57735;56.264;43.898;2023-03-16T01:06:36;100941.22;;;4.28;55.06
70323;BME280;57735;56.264;43.898;2023-03-16T01:09:06;100937.94;;;4.24;55.00
70323;BME280;57735;56.264;43.898;2023-03-16T01:11:38;100941.41;;;4.25;55.04
70323;BME280;57735;56.264;43.898;2023-03-16T01:14:09;100946.59;;;4.26;55.33
70323;BME280;57735;56.264;43.898;2023-03-16T01:16:42;100938.69;;;4.26;55.02
70323;BME280;57735;56.264;43.898;2023-03-16T01:19:15;100944.81;;;4.27;54.87
70323;BME280;57735;56.264;43.898;2023-03-16T01:21:45;100946.50;;;4.28;55.00
70323;BME280;57735;56.264;43.898;2023-03-16T01:24:18;100939.63;;;4.25;55.03
70323;BME280;57735;56.264;43.898;2023-03-16T01:26:49;100940.47;;;4.26;54.81
70323;BME280;57735;56.264;43.898;2023-03-16T01:29:19;100933.41;;;4.26;54.57
70323;BME280;57735;56.264;43.898;2023-03-16T01:31:50;100939.44;;;4.28;54.73
70323;BME280;57735;56.264;43.898;2023-03-16T01:34:21;100936.91;;;4.27;54.75
70323;BME280;57735;56.264;43.898;2023-03-16T01:36:51;100934.34;;;4.25;54.57
70323;BME280;57735;56.264;43.898;2023-03-16T01:39:22;100945.84;;;4.24;54.56
70323;BME280;57735;56.264;43.898;2023-03-16T01:41:53;100938.78;;;4.25;54.79
70323;BME280;57735;56.264;43.898;2023-03-16T01:44:24;100932.56;;;4.26;54.52
70323;BME280;57735;56.264;43.898;2023-03-16T01:46:59;100939.63;;;4.25;54.58
70323;BME280;57735;56.264;43.898;2023-03-16T01:49:33;100940.00;;;4.19;54.50
70323;BME280;57735;56.264;43.898;2023-03-16T01:52:07;100941.38;;;4.12;54.93
70323;BME280;57735;56.264;43.898;2023-03-16T01:57:23;100935.00;;;4.02;55.04
70323;BME280;57735;56.264;43.898;2023-03-16T02:02:29;100931.06;;;3.95;55.25
70323;BME280;57735;56.264;43.898;2023-03-16T02:05:19;100936.31;;;3.95;55.20
70323;BME280;57735;56.264;43.898;2023-03-16T02:07:52;100940.56;;;3.97;55.46
70323;BME280;57735;56.264;43.898;2023-03-16T02:10:28;100941.09;;;4.02;55.17
70323;BME280;57735;56.264;43.898;2023-03-16T02:12:58;100931.31;;;4.04;55.32
70323;BME280;57735;56.264;43.898;2023-03-16T02:15:29;100925.19;;;4.04;55.15
70323;BME280;57735;56.264;43.898;2023-03-16T02:18:03;100916.31;;;4.05;55.06
70323;BME280;57735;56.264;43.898;2023-03-16T02:23:05;100929.50;;;4.05;54.93
70323;BME280;57735;56.264;43.898;2023-03-16T02:25:46;100916.22;;;4.06;54.82
70323;BME280;57735;56.264;43.898;2023-03-16T02:28:35;100906.53;;;4.07;54.83
70323;BME280;57735;56.264;43.898;2023-03-16T02:31:08;100909.91;;;4.09;54.66
70323;BME280;57735;56.264;43.898;2023-03-16T02:33:39;100919.50;;;4.10;54.57
70323;BME280;57735;56.264;43.898;2023-03-16T02:36:11;100923.09;;;4.09;54.54
70323;BME280;57735;56.264;43.898;2023-03-16T02:38:43;100919.50;;;4.10;54.84
70323;BME280;57735;56.264;43.898;2023-03-16T02:41:15;100919.50;;;4.10;54.40
70323;BME280;57735;56.264;43.898;2023-03-16T02:43:51;100915.00;;;4.12;54.36
70323;BME280;57735;56.264;43.898;2023-03-16T02:46:24;100910.47;;;4.14;54.47
70323;BME280;57735;56.264;43.898;2023-03-16T02:51:29;100914.06;;;4.13;54.46
70323;BME280;57735;56.264;43.898;2023-03-16T02:54:02;100914.06;;;4.13;54.36
70323;BME280;57735;56.264;43.898;2023-03-16T02:56:33;100905.38;;;4.11;54.14
70323;BME280;57735;56.264;43.898;2023-03-16T02:59:04;100912.53;;;4.09;54.07
70323;BME280;57735;56.264;43.898;2023-03-16T03:01:34;100908.97;;;4.10;54.16
70323;BME280;57735;56.264;43.898;2023-03-16T03:04:06;100900.84;;;4.13;54.03
70323;BME280;57735;56.264;43.898;2023-03-16T03:06:36;100907.06;;;4.12;54.16
70323;BME280;57735;56.264;43.898;2023-03-16T03:09:07;100904.44;;;4.12;53.95
70323;BME280;57735;56.264;43.898;2023-03-16T03:11:40;100895.47;;;4.14;54.02
70323;BME280;57735;56.264;43.898;2023-03-16T03:14:11;100898.13;;;4.14;53.79
70323;BME280;57735;56.264;43.898;2023-03-16T03:16:42;100900.84;;;4.13;53.90
70323;BME280;57735;56.264;43.898;2023-03-16T03:19:15;100893.13;;;4.10;54.00
70323;BME280;57735;56.264;43.898;2023-03-16T03:21:48;100902.75;;;4.11;54.19
70323;BME280;57735;56.264;43.898;2023-03-16T03:24:21;100903.03;;;4.06;54.11
70323;BME280;57735;56.264;43.898;2023-03-16T03:26:56;100890.78;;;4.05;54.36
70323;BME280;57735;56.264;43.898;2023-03-16T03:29:30;100899.53;;;4.06;54.35
70323;BME280;57735;56.264;43.898;2023-03-16T03:32:03;100890.78;;;4.05;54.58
70323;BME280;57735;56.264;43.898;2023-03-16T03:34:34;100892.81;;;4.02;55.04
70323;BME280;57735;56.264;43.898;2023-03-16T03:37:04;100893.94;;;3.98;55.00
70323;BME280;57735;56.264;43.898;2023-03-16T03:39:35;100884.53;;;3.94;55.12
70323;BME280;57735;56.264;43.898;2023-03-16T03:42:05;100872.47;;;3.90;55.14
70323;BME280;57735;56.264;43.898;2023-03-16T03:44:36;100871.72;;;3.88;55.28
70323;BME280;57735;56.264;43.898;2023-03-16T03:47:07;100874.59;;;3.84;55.25
70323;BME280;57735;56.264;43.898;2023-03-16T03:49:40;100864.22;;;3.81;55.38
70323;BME280;57735;56.264;43.898;2023-03-16T03:52:10;100867.72;;;3.82;55.39
70323;BME280;57735;56.264;43.898;2023-03-16T03:54:41;100869.59;;;3.80;55.62
70323;BME280;57735;56.264;43.898;2023-03-16T03:57:14;100871.28;;;3.81;55.24
70323;BME280;57735;56.264;43.898;2023-03-16T03:59:45;100866.97;;;3.80;55.45
70323;BME280;57735;56.264;43.898;2023-03-16T04:02:18;100870.88;;;3.87;54.98
70323;BME280;57735;56.264;43.898;2023-03-16T04:04:49;100873.22;;;3.92;55.17
70323;BME280;57735;56.264;43.898;2023-03-16T04:07:19;100864.38;;;3.93;55.00
70323;BME280;57735;56.264;43.898;2023-03-16T04:09:50;100861.44;;;3.97;54.91
70323;BME280;57735;56.264;43.898;2023-03-16T04:12:20;100863.22;;;3.97;55.01
70323;BME280;57735;56.264;43.898;2023-03-16T04:14:51;100860.41;;;4.00;54.75
70323;BME280;57735;56.264;43.898;2023-03-16T04:17:21;100870.72;;;4.03;54.87
70323;BME280;57735;56.264;43.898;2023-03-16T04:19:55;100860.63;;;4.09;54.64
70323;BME280;57735;56.264;43.898;2023-03-16T04:22:25;100861.94;;;4.16;54.57
70323;BME280;57735;56.264;43.898;2023-03-16T04:25:02;100852.56;;;4.25;54.11
70323;BME280;57735;56.264;43.898;2023-03-16T04:27:33;100845.28;;;4.29;53.99
70323;BME280;57735;56.264;43.898;2023-03-16T04:30:06;100842.44;;;4.32;53.54
70323;BME280;57735;56.264;43.898;2023-03-16T04:32:37;100835.38;;;4.32;53.73
70323;BME280;57735;56.264;43.898;2023-03-16T04:35:09;100846.88;;;4.31;54.18
70323;BME280;57735;56.264;43.898;2023-03-16T04:37:39;100834.34;;;4.35;53.98
70323;BME280;57735;56.264;43.898;2023-03-16T04:40:10;100840.22;;;4.38;53.88
70323;BME280;57735;56.264;43.898;2023-03-16T04:42:48;100838.31;;;4.40;53.73
70323;BME280;57735;56.264;43.898;2023-03-16T04:45:18;100844.34;;;4.42;53.92
70323;BME280;57735;56.264;43.898;2023-03-16T04:47:49;100842.66;;;4.41;53.56
70323;BME280;57735;56.264;43.898;2023-03-16T04:50:22;100850.38;;;4.44;53.50
70323;BME280;57735;56.264;43.898;2023-03-16T04:52:53;100853.56;;;4.49;53.53
70323;BME280;57735;56.264;43.898;2023-03-16T04:55:23;100854.94;;;4.55;53.34
70323;BME280;57735;56.264;43.898;2023-03-16T04:57:54;100860.19;;;4.55;53.35
70323;BME280;57735;56.264;43.898;2023-03-16T05:00:24;100863.50;;;4.59;53.11
70323;BME280;57735;56.264;43.898;2023-03-16T05:02:57;100865.81;;;4.63;53.33
70323;BME280;57735;56.264;43.898;2023-03-16T05:05:28;100874.41;;;4.67;53.31
70323;BME280;57735;56.264;43.898;2023-03-16T05:07:58;100872.59;;;4.67;53.18
70323;BME280;57735;56.264;43.898;2023-03-16T05:10:31;100877.78;;;4.69;52.99
70323;BME280;57735;56.264;43.898;2023-03-16T05:13:03;100875.53;;;4.63;53.22
70323;BME280;57735;56.264;43.898;2023-03-16T05:15:33;100875.75;;;4.60;53.42
70323;BME280;57735;56.264;43.898;2023-03-16T05:18:04;100875.94;;;4.56;53.49
70323;BME280;57735;56.264;43.898;2023-03-16T05:20:34;100878.59;;;4.56;53.44
70323;BME280;57735;56.264;43.898;2023-03-16T05:23:05;100873.31;;;4.56;53.59
70323;BME280;57735;56.264;43.898;2023-03-16T05:25:37;100864.53;;;4.56;53.61
70323;BME280;57735;56.264;43.898;2023-03-16T05:28:10;100864.34;;;4.59;53.40
70323;BME280;57735;56.264;43.898;2023-03-16T05:30:41;100868.66;;;4.60;53.29
70323;BME280;57735;56.264;43.898;2023-03-16T05:33:12;100862.53;;;4.60;53.23
70323;BME280;57735;56.264;43.898;2023-03-16T05:35:42;100859.91;;;4.60;53.32
70323;BME280;57735;56.264;43.898;2023-03-16T05:38:13;100865.72;;;4.65;53.38
70323;BME280;57735;56.264;43.898;2023-03-16T05:40:44;100862.03;;;4.67;52.96
70323;BME280;57735;56.264;43.898;2023-03-16T05:43:15;100855.38;;;4.74;53.00
70323;BME280;57735;56.264;43.898;2023-03-16T05:45:46;100849.03;;;4.77;52.43
70323;BME280;57735;56.264;43.898;2023-03-16T05:48:16;100857.06;;;4.75;52.54
70323;BME280;57735;56.264;43.898;2023-03-16T05:50:47;100864.56;;;4.69;52.48
70323;BME280;57735;56.264;43.898;2023-03-16T05:53:19;100868.38;;;4.77;52.40
70323;BME280;57735;56.264;43.898;2023-03-16T05:55:51;100856.56;;;4.83;52.02
70323;BME280;57735;56.264;43.898;2023-03-16T05:58:21;100844.09;;;4.85;51.83
70323;BME280;57735;56.264;43.898;2023-03-16T06:00:52;100844.81;;;4.87;51.97
70323;BME280;57735;56.264;43.898;2023-03-16T06:03:24;100855.16;;;4.90;51.73
70323;BME280;57735;56.264;43.898;2023-03-16T06:05:55;100852.72;;;4.87;51.90
70323;BME280;57735;56.264;43.898;2023-03-16T06:08:25;100851.88;;;4.86;52.00
70323;BME280;57735;56.264;43.898;2023-03-16T06:10:56;100843.97;;;4.86;51.98
70323;BME280;57735;56.264;43.898;2023-03-16T06:13:27;100841.00;;;4.91;51.57
70323;BME280;57735;56.264;43.898;2023-03-16T06:15:58;100844.41;;;4.93;51.51
70323;BME280;57735;56.264;43.898;2023-03-16T06:18:28;100850.53;;;4.94;51.57
70323;BME280;57735;56.264;43.898;2023-03-16T06:21:02;100846.19;;;4.93;51.87
70323;BME280;57735;56.264;43.898;2023-03-16T06:23:33;100843.97;;;4.86;51.92
70323;BME280;57735;56.264;43.898;2023-03-16T06:26:03;100836.03;;;4.86;52.06
70323;BME280;57735;56.264;43.898;2023-03-16T06:28:34;100823.91;;;4.97;51.87
70323;BME280;57735;56.264;43.898;2023-03-16T06:31:05;100824.53;;;5.00;51.77
70323;BME280;57735;56.264;43.898;2023-03-16T06:33:35;100814.56;;;5.04;51.61
70323;BME280;57735;56.264;43.898;2023-03-16T06:36:06;100810.25;;;5.03;51.36
70323;BME280;57735;56.264;43.898;2023-03-16T06:38:36;100812.78;;;5.04;51.82
70323;BME280;57735;56.264;43.898;2023-03-16T06:41:07;100806.88;;;5.13;51.45
70323;BME280;57735;56.264;43.898;2023-03-16T06:43:38;100802.81;;;5.20;51.25
70323;BME280;57735;56.264;43.898;2023-03-16T06:46:09;100808.41;;;5.29;51.29
70323;BME280;57735;56.264;43.898;2023-03-16T06:48:42;100816.44;;;5.27;51.30
70323;BME280;57735;56.264;43.898;2023-03-16T06:51:13;100818.47;;;5.23;51.03
70323;BME280;57735;56.264;43.898;2023-03-16T06:53:44;100816.88;;;5.21;51.56
70323;BME280;57735;56.264;43.898;2023-03-16T06:56:14;100813.72;;;5.16;51.41
70323;BME280;57735;56.264;43.898;2023-03-16T07:01:25;100819.34;;;5.11;51.63
70323;BME280;57735;56.264;43.898;2023-03-16T07:03:56;100812.34;;;5.10;51.74
70323;BME280;57735;56.264;43.898;2023-03-16T07:06:26;100807.91;;;5.11;51.61
70323;BME280;57735;56.264;43.898;2023-03-16T07:08:57;100810.13;;;5.04;52.14
70323;BME280;57735;56.264;43.898;2023-03-16T07:11:28;100801.72;;;4.99;51.81
70323;BME280;57735;56.264;43.898;2023-03-16T07:13:58;100794.72;;;4.98;52.06
70323;BME280;57735;56.264;43.898;2023-03-16T07:16:29;100788.06;;;4.93;52.04
70323;BME280;57735;56.264;43.898;2023-03-16T07:19:02;100785.63;;;4.89;52.08
70323;BME280;57735;56.264;43.898;2023-03-16T07:21:35;100793.56;;;4.89;52.44
70323;BME280;57735;56.264;43.898;2023-03-16T07:24:12;100792.72;;;4.89;52.25
70323;BME280;57735;56.264;43.898;2023-03-16T07:26:42;100778.34;;;4.93;52.23
70323;BME280;57735;56.264;43.898;2023-03-16T07:29:13;100764.19;;;4.94;52.01
70323;BME280;57735;56.264;43.898;2023-03-16T07:31:45;100743.69;;;4.98;52.02
70323;BME280;57735;56.264;43.898;2023-03-16T07:34:15;100764.19;;;4.94;51.74
70323;BME280;57735;56.264;43.898;2023-03-16T07:36:46;100765.69;;;4.98;52.16
70323;BME280;57735;56.264;43.898;2023-03-16T07:39:21;100774.25;;;5.02;52.42
70323;BME280;57735;56.264;43.898;2023-03-16T07:41:54;100789.34;;;5.00;52.33
70323;BME280;57735;56.264;43.898;2023-03-16T07:44:25;100783.22;;;4.99;52.03
70323;BME280;57735;56.264;43.898;2023-03-16T07:46:55;100782.38;;;4.99;51.96
70323;BME280;57735;56.264;43.898;2023-03-16T07:49:26;100786.88;;;5.09;51.95
70323;BME280;57735;56.264;43.898;2023-03-16T07:51:57;100769.88;;;5.13;51.77
70323;BME280;57735;56.264;43.898;2023-03-16T07:54:30;100788.47;;;5.12;51.50
70323;BME280;57735;56.264;43.898;2023-03-16T07:57:01;100784.03;;;5.12;51.84
70323;BME280;57735;56.264;43.898;2023-03-16T07:59:31;100783.81;;;5.15;51.46
70323;BME280;57735;56.264;43.898;2023-03-16T08:02:02;100780.22;;;5.16;51.41
70323;BME280;57735;56.264;43.898;2023-03-16T08:04:33;100777.47;;;5.18;51.51
70323;BME280;57735;56.264;43.898;2023-03-16T08:07:03;100774.84;;;5.18;51.50
70323;BME280;57735;56.264;43.898;2023-03-16T08:09:34;100778.31;;;5.18;51.54
70323;BME280;57735;56.264;43.898;2023-03-16T08:12:05;100779.78;;;5.22;51.28
70323;BME280;57735;56.264;43.898;2023-03-16T08:14:36;100781.47;;;5.23;51.49
70323;BME280;57735;56.264;43.898;2023-03-16T08:17:06;100783.88;;;5.26;51.47
70323;BME280;57735;56.264;43.898;2023-03-16T08:19:39;100772.56;;;5.24;51.10
70323;BME280;57735;56.264;43.898;2023-03-16T08:22:11;100767.81;;;5.30;51.24
70323;BME280;57735;56.264;43.898;2023-03-16T08:24:42;100762.63;;;5.28;51.02
70323;BME280;57735;56.264;43.898;2023-03-16T08:27:12;100763.25;;;5.32;51.32
70323;BME280;57735;56.264;43.898;2023-03-16T08:29:45;100771.09;;;5.33;51.20
70323;BME280;57735;56.264;43.898;2023-03-16T08:32:15;100770.72;;;5.38;51.25
70323;BME280;57735;56.264;43.898;2023-03-16T08:34:46;100765.69;;;5.35;51.71
70323;BME280;57735;56.264;43.898;2023-03-16T08:37:16;100761.47;;;5.32;50.94
70323;BME280;57735;56.264;43.898;2023-03-16T08:39:47;100751.44;;;5.24;51.36
70323;BME280;57735;56.264;43.898;2023-03-16T08:42:20;100755.50;;;5.17;51.41
70323;BME280;57735;56.264;43.898;2023-03-16T08:44:51;100739.31;;;5.09;51.56
70323;BME280;57735;56.264;43.898;2023-03-16T08:47:24;100737.09;;;5.03;51.45
70323;BME280;57735;56.264;43.898;2023-03-16T08:49:56;100733.34;;;4.95;51.76
70323;BME280;57735;56.264;43.898;2023-03-16T08:52:26;100724.88;;;4.89;51.95
70323;BME280;57735;56.264;43.898;2023-03-16T08:54:57;100731.47;;;4.84;52.09
70323;BME280;57735;56.264;43.898;2023-03-16T08:57:27;100734.31;;;4.81;52.38
70323;BME280;57735;56.264;43.898;2023-03-16T08:59:58;100731.78;;;4.79;52.20
70323;BME280;57735;56.264;43.898;2023-03-16T09:02:29;100726.41;;;4.81;52.27
70323;BME280;57735;56.264;43.898;2023-03-16T09:04:59;100727.47;;;4.78;52.50
70323;BME280;57735;56.264;43.898;2023-03-16T09:07:30;100729.34;;;4.76;52.76
70323;BME280;57735;56.264;43.898;2023-03-16T09:10:08;100725.88;;;4.76;52.53
70323;BME280;57735;56.264;43.898;2023-03-16T09:12:43;100723.22;;;4.76;52.95
70323;BME280;57735;56.264;43.898;2023-03-16T09:15:14;100730.88;;;4.68;52.76
70323;BME280;57735;56.264;43.898;2023-03-16T09:17:45;100728.22;;;4.68;52.86
70323;BME280;57735;56.264;43.898;2023-03-16T09:20:16;100734.44;;;4.67;53.04
70323;BME280;57735;56.264;43.898;2023-03-16T09:22:48;100732.88;;;4.64;52.95
70323;BME280;57735;56.264;43.898;2023-03-16T09:25:19;100733.19;;;4.60;53.22
70323;BME280;57735;56.264;43.898;2023-03-16T09:27:49;100723.97;;;4.52;53.40
70323;BME280;57735;56.264;43.898;2023-03-16T09:30:20;100725.28;;;4.47;53.61
70323;BME280;57735;56.264;43.898;2023-03-16T09:32:51;100724.63;;;4.43;54.02
70323;BME280;57735;56.264;43.898;2023-03-16T09:35:21;100715.88;;;4.43;53.84
70323;BME280;57735;56.264;43.898;2023-03-16T09:37:52;100719.34;;;4.43;53.63
70323;BME280;57735;56.264;43.898;2023-03-16T09:40:26;100728.22;;;4.42;53.53
70323;BME280;57735;56.264;43.898;2023-03-16T09:45:47;100746.38;;;4.47;53.98
70323;BME280;57735;56.264;43.898;2023-03-16T09:48:18;100744.50;;;4.49;53.85
70323;BME280;57735;56.264;43.898;2023-03-16T09:50:50;100737.19;;;4.52;53.88
70323;BME280;57735;56.264;43.898;2023-03-16T09:53:29;100740.56;;;4.54;53.68
70323;BME280;57735;56.264;43.898;2023-03-16T09:56:02;100749.44;;;4.53;54.00
70323;BME280;57735;56.264;43.898;2023-03-16T09:58:34;100751.88;;;4.56;53.85
70323;BME280;57735;56.264;43.898;2023-03-16T10:01:13;100753.25;;;4.62;53.76
70323;BME280;57735;56.264;43.898;2023-03-16T10:03:50;100749.44;;;4.66;53.52
70323;BME280;57735;56.264;43.898;2023-03-16T10:06:26;100755.34;;;4.70;53.67
70323;BME280;57735;56.264;43.898;2023-03-16T10:09:06;100752.59;;;4.71;53.91
70323;BME280;57735;56.264;43.898;2023-03-16T10:11:46;100741.19;;;4.71;53.78
70323;BME280;57735;56.264;43.898;2023-03-16T10:14:22;100734.00;;;4.73;53.34
70323;BME280;57735;56.264;43.898;2023-03-16T10:22:30;100745.94;;;4.78;53.04
70323;BME280;57735;56.264;43.898;2023-03-16T10:27:48;100747.81;;;4.89;53.13
70323;BME280;57735;56.264;43.898;2023-03-16T10:30:29;100743.16;;;4.93;53.50
70323;BME280;57735;56.264;43.898;2023-03-16T10:33:03;100747.06;;;4.87;53.85
70323;BME280;57735;56.264;43.898;2023-03-16T10:35:43;100737.47;;;4.86;54.04
70323;BME280;57735;56.264;43.898;2023-03-16T10:40:58;100745.63;;;4.83;54.23
70323;BME280;57735;56.264;43.898;2023-03-16T10:43:29;100724.50;;;4.83;53.96
70323;BME280;57735;56.264;43.898;2023-03-16T10:46:01;100720.16;;;4.82;53.73
70323;BME280;57735;56.264;43.898;2023-03-16T10:48:31;100723.97;;;4.78;53.48
70323;BME280;57735;56.264;43.898;2023-03-16T10:51:05;100736.44;;;4.76;53.73
70323;BME280;57735;56.264;43.898;2023-03-16T10:53:41;100736.53;;;4.74;53.63
70323;BME280;57735;56.264;43.898;2023-03-16T10:56:23;100718.91;;;4.75;53.71
70323;BME280;57735;56.264;43.898;2023-03-16T10:58:58;100724.91;;;4.77;53.54
70323;BME280;57735;56.264;43.898;2023-03-16T11:01:29;100718.25;;;4.84;53.49
70323;BME280;57735;56.264;43.898;2023-03-16T11:04:01;100713.28;;;4.92;53.33
70323;BME280;57735;56.264;43.898;2023-03-16T11:06:34;100718.13;;;4.98;53.32
70323;BME280;57735;56.264;43.898;2023-03-16T11:09:17;100708.91;;;5.04;53.08
70323;BME280;57735;56.264;43.898;2023-03-16T11:11:49;100717.66;;;5.04;53.10
70323;BME280;57735;56.264;43.898;2023-03-16T11:14:26;100711.22;;;5.08;52.65
70323;BME280;57735;56.264;43.898;2023-03-16T11:19:36;100724.00;;;5.14;52.40
70323;BME280;57735;56.264;43.898;2023-03-16T11:22:24;100726.63;;;5.14;52.51
70323;BME280;57735;56.264;43.898;2023-03-16T11:32:42;100705.03;;;5.20;52.15
70323;BME280;57735;56.264;43.898;2023-03-16T11:35:16;100715.06;;;5.28;52.54
70323;BME280;57735;56.264;43.898;2023-03-16T11:40:37;100705.91;;;5.45;51.79
70323;BME280;57735;56.264;43.898;2023-03-16T11:46:06;100704.94;;;5.46;51.27
70323;BME280;57735;56.264;43.898;2023-03-16T11:49:03;100695.66;;;5.40;51.47
70323;BME280;57735;56.264;43.898;2023-03-16T11:54:18;100710.34;;;5.44;51.74
70323;BME280;57735;56.264;43.898;2023-03-16T11:56:58;100703.38;;;5.43;52.40
70323;BME280;57735;56.264;43.898;2023-03-16T11:59:34;100703.38;;;5.43;51.82
70323;BME280;57735;56.264;43.898;2023-03-16T12:04:57;100692.91;;;5.42;51.84
70323;BME280;57735;56.264;43.898;2023-03-16T12:10:28;100690.78;;;5.47;51.58
70323;BME280;57735;56.264;43.898;2023-03-16T12:15:39;100692.47;;;5.48;51.45
70323;BME280;57735;56.264;43.898;2023-03-16T12:18:15;100700.28;;;5.49;51.12
70323;BME280;57735;56.264;43.898;2023-03-16T12:23:20;100696.06;;;5.47;51.60
70323;BME280;57735;56.264;43.898;2023-03-16T12:25:55;100698.59;;;5.48;51.26
70323;BME280;57735;56.264;43.898;2023-03-16T12:28:29;100691.28;;;5.52;51.23
70323;BME280;57735;56.264;43.898;2023-03-16T12:48:26;100666.44;;;5.66;50.91
70323;BME280;57735;56.264;43.898;2023-03-16T12:51:00;100655.75;;;5.67;50.72
70323;BME280;57735;56.264;43.898;2023-03-16T12:56:10;100644.44;;;5.65;50.62
70323;BME280;57735;56.264;43.898;2023-03-16T12:58:48;100647.09;;;5.65;50.92
70323;BME280;57735;56.264;43.898;2023-03-16T13:01:23;100644.78;;;5.60;50.98
70323;BME280;57735;56.264;43.898;2023-03-16T13:03:58;100639.84;;;5.56;51.23
70323;BME280;57735;56.264;43.898;2023-03-16T13:06:31;100630.31;;;5.53;51.28
70323;BME280;57735;56.264;43.898;2023-03-16T13:09:06;100633.34;;;5.49;51.18
70323;BME280;57735;56.264;43.898;2023-03-16T13:11:40;100640.75;;;5.44;51.33
70323;BME280;57735;56.264;43.898;2023-03-16T13:14:28;100640.25;;;5.39;51.44
70323;BME280;57735;56.264;43.898;2023-03-16T13:17:05;100644.09;;;5.35;51.96
70323;BME280;57735;56.264;43.898;2023-03-16T13:19:36;100632.78;;;5.33;52.13
70323;BME280;57735;56.264;43.898;2023-03-16T13:25:17;100618.13;;;5.29;52.01
70323;BME280;57735;56.264;43.898;2023-03-16T13:27:54;100605.75;;;5.29;51.76
70323;BME280;57735;56.264;43.898;2023-03-16T13:30:28;100617.59;;;5.23;51.74
70323;BME280;57735;56.264;43.898;2023-03-16T13:33:16;100617.81;;;5.20;52.06
70323;BME280;57735;56.264;43.898;2023-03-16T13:35:49;100613.84;;;5.15;52.38
70323;BME280;57735;56.264;43.898;2023-03-16T13:38:21;100608.78;;;5.12;52.88
70323;BME280;57735;56.264;43.898;2023-03-16T13:40:52;100608.78;;;5.12;52.41
70323;BME280;57735;56.264;43.898;2023-03-16T13:43:25;100618.53;;;5.11;52.84
70323;BME280;57735;56.264;43.898;2023-03-16T13:46:16;100613.34;;;5.10;53.12
70323;BME280;57735;56.264;43.898;2023-03-16T13:48:50;100607.22;;;5.09;53.10
70323;BME280;57735;56.264;43.898;2023-03-16T13:51:20;100601.81;;;5.11;52.78
70323;BME280;57735;56.264;43.898;2023-03-16T13:53:56;100601.19;;;5.07;52.66
70323;BME280;57735;56.264;43.898;2023-03-16T13:56:27;100603.84;;;5.07;52.58
70323;BME280;57735;56.264;43.898;2023-03-16T13:59:02;100603.09;;;5.05;52.69
70323;BME280;57735;56.264;43.898;2023-03-16T14:01:33;100596.88;;;5.06;52.89
70323;BME280;57735;56.264;43.898;2023-03-16T14:04:08;100600.25;;;5.08;52.87
70323;BME280;57735;56.264;43.898;2023-03-16T14:06:56;100596.03;;;5.06;53.73
70323;BME280;57735;56.264;43.898;2023-03-16T14:09:28;100599.50;;;5.06;53.34
70323;BME280;57735;56.264;43.898;2023-03-16T14:12:00;100599.72;;;5.03;53.94
70323;BME280;57735;56.264;43.898;2023-03-16T14:14:36;100590.16;;;5.02;53.60
70323;BME280;57735;56.264;43.898;2023-03-16T14:17:12;100604.06;;;5.04;53.25
70323;BME280;57735;56.264;43.898;2023-03-16T14:19:58;100605.84;;;5.04;53.31
70323;BME280;57735;56.264;43.898;2023-03-16T14:22:32;100602.38;;;5.03;53.55
70323;BME280;57735;56.264;43.898;2023-03-16T14:25:04;100603.09;;;5.05;53.60
70323;BME280;57735;56.264;43.898;2023-03-16T14:30:16;100612.09;;;5.03;53.89
70323;BME280;57735;56.264;43.898;2023-03-16T14:33:00;100604.41;;;5.00;53.49
70323;BME280;57735;56.264;43.898;2023-03-16T14:35:45;100613.53;;;4.96;53.43
70323;BME280;57735;56.264;43.898;2023-03-16T14:38:42;100603.78;;;4.96;53.48
70323;BME280;57735;56.264;43.898;2023-03-16T14:41:18;100610.97;;;4.94;53.56